Portada
METAR-TAF:

METAR-TAF

Aeroports :

Yellowknife, Territoris del Nord-oest, Canadà

latitud: 62-28N, longitud: 114-27W, altitud: 205 m

Observació

L'informe es va fer fa 47 minuts, a les 15:00 UTC
Vent 6 kt del Nord/Nord-Est
Temperatura -5°C
Humitat 93%
Pressió 1013 hPa
Visibilitat: 24.1 km
Escasses núvols a una alçada de 11000 ft
Escasses núvols a una alçada de 24000 ft

METAR: CYZF 231500Z 03006KT 15SM FEW110 FEW240 M05/M06 A2990 RMK AC1CI1 SLP142

Hora: 09:47 (15:47 UTC)

Pronòstic

L'informe es va fer fa 4 hores i 8 minuts, a les 11:39 UTC
Pronòstic vàlid del 23 a les 12 UTC al 24 a les 12 UTC
Vent 8 kt del Est
Visibilitat: 10 km
Núvols disperses a una alçada de 11000 ft
Cel ennuvolat a una alçada de 24000 ft

TAF: CYZF 231139Z 2312/2412 08008KT P6SM SCT110 BKN240 RMK NXT FCST BY 231800Z

Observacions i pronòstics meteorològics de més de 4000 aeroports (METAR i TAF).

Les estacions disponibles són els punts grocs i vermells al mapa.

Posi el ratolí al punt desitjat per veure el nom de l'estació.

Feu clic per veure les observacions i els pronòstics meteorològics.

Per canviar el mapa: feu clic els botons verds amb una creu de color negre per apropar; al botó verd amb un guió per allunyar la imatge; o en les fletxes verdes per a mapes adjacents.


METAR-TAF: